createdAt,value
2019-05-02T00:00:52.865Z,34.87
2019-05-02T00:03:23.167Z,34.63
2019-05-02T00:05:52.786Z,36.33
2019-05-02T00:08:22.693Z,36.70
2019-05-02T00:10:51.559Z,35.30
2019-05-02T00:13:20.775Z,36.77
2019-05-02T00:15:51.019Z,35.03
2019-05-02T00:18:22.237Z,35.83
2019-05-02T00:20:51.335Z,36.23
2019-05-02T00:23:22.961Z,36.30
2019-05-02T00:25:52.495Z,37.97
2019-05-02T00:28:21.640Z,35.40
2019-05-02T00:30:50.849Z,35.57
2019-05-02T00:33:19.737Z,35.27
2019-05-02T00:35:48.991Z,34.93
2019-05-02T00:38:18.608Z,34.30
2019-05-02T00:40:47.584Z,33.47
2019-05-02T00:43:16.360Z,35.73
2019-05-02T00:45:45.353Z,33.73
2019-05-02T00:48:26.195Z,37.03
2019-05-02T00:50:55.198Z,36.57
2019-05-02T00:53:24.286Z,36.70
2019-05-02T00:55:53.240Z,37.27
2019-05-02T00:58:21.965Z,37.23
2019-05-02T01:01:09.080Z,36.83
2019-05-02T01:03:39.695Z,38.50
2019-05-02T01:06:13.646Z,38.93
2019-05-02T01:08:39.623Z,39.40
2019-05-02T01:11:08.790Z,38.50
2019-05-02T01:13:37.626Z,37.03
2019-05-02T01:16:06.894Z,37.47
2019-05-02T01:18:37.184Z,37.47
2019-05-02T01:21:06.553Z,37.10
2019-05-02T01:23:35.313Z,37.80
2019-05-02T01:26:04.194Z,38.13
2019-05-02T01:28:54.202Z,36.23
2019-05-02T01:31:29.114Z,36.47
2019-05-02T01:34:05.083Z,38.33
2019-05-02T01:36:41.051Z,37.30
2019-05-02T01:39:11.275Z,36.67
2019-05-02T01:41:40.070Z,38.00
2019-05-02T01:44:08.771Z,37.87
2019-05-02T01:46:38.075Z,38.30
2019-05-02T01:49:06.943Z,37.90
2019-05-02T01:51:36.854Z,39.13
2019-05-02T01:54:09.955Z,37.90
2019-05-02T01:56:36.835Z,36.53
2019-05-02T01:59:05.719Z,39.30
2019-05-02T02:01:34.958Z,38.63
2019-05-02T02:04:03.826Z,39.23
2019-05-02T02:06:32.668Z,37.40
2019-05-02T02:09:03.407Z,39.03
2019-05-02T02:11:33.913Z,37.77
2019-05-02T02:14:07.145Z,39.73
2019-05-02T02:16:35.214Z,35.50
2019-05-02T02:19:11.750Z,38.50
2019-05-02T02:21:47.495Z,37.27
2019-05-02T02:24:25.131Z,37.90
2019-05-02T02:26:52.048Z,38.43
2019-05-02T02:29:21.906Z,40.40
2019-05-02T02:31:50.786Z,41.60
2019-05-02T02:34:29.048Z,37.37
2019-05-02T02:36:50.300Z,40.60
2019-05-02T02:39:19.465Z,39.43
2019-05-02T02:41:52.126Z,38.10
2019-05-02T02:44:39.756Z,38.87
2019-05-02T02:47:05.494Z,39.30
2019-05-02T02:49:34.640Z,37.80
2019-05-02T02:52:04.941Z,37.10
2019-05-02T02:54:36.604Z,37.63
2019-05-02T02:57:04.939Z,38.70
2019-05-02T02:59:33.837Z,37.00
2019-05-02T03:02:10.062Z,37.47
2019-05-02T03:04:33.616Z,36.33
2019-05-02T03:07:02.557Z,37.47
2019-05-02T03:09:31.295Z,38.50
2019-05-02T03:12:41.427Z,37.40
2019-05-02T03:15:13.189Z,40.20
2019-05-02T03:17:42.060Z,36.83
2019-05-02T03:20:10.877Z,38.70
2019-05-02T03:22:42.042Z,38.63
2019-05-02T03:25:10.947Z,40.20
2019-05-02T03:27:40.542Z,38.33
2019-05-02T03:30:09.590Z,40.87
2019-05-02T03:32:38.857Z,37.23
2019-05-02T03:35:07.741Z,37.00
2019-05-02T03:37:37.348Z,39.10
2019-05-02T03:40:06.593Z,38.53
2019-05-02T03:42:43.758Z,38.87
2019-05-02T03:45:06.451Z,40.00
2019-05-02T03:47:37.048Z,41.57
2019-05-02T03:50:08.852Z,41.00
2019-05-02T03:52:43.532Z,37.50
2019-05-02T03:55:08.097Z,40.83
2019-05-02T03:57:41.365Z,39.57
2019-05-02T04:00:13.988Z,40.60
2019-05-02T04:02:40.222Z,41.87
2019-05-02T04:05:10.023Z,41.67
2019-05-02T04:07:40.855Z,40.97
2019-05-02T04:10:20.215Z,40.17
2019-05-02T04:12:45.369Z,40.83
2019-05-02T04:15:14.181Z,43.77
2019-05-02T04:17:43.466Z,42.90
2019-05-02T04:20:12.917Z,39.97
2019-05-02T04:22:48.934Z,41.67
2019-05-02T04:25:14.295Z,40.63
2019-05-02T04:27:43.740Z,40.97
2019-05-02T04:30:14.243Z,44.20
2019-05-02T04:32:49.870Z,43.70
2019-05-02T04:35:15.052Z,42.63
2019-05-02T04:37:43.954Z,40.40
2019-05-02T04:40:12.986Z,42.20
2019-05-02T04:42:41.864Z,42.50
2019-05-02T04:45:24.384Z,41.80
2019-05-02T04:47:42.482Z,41.90
2019-05-02T04:50:18.072Z,38.73
2019-05-02T04:52:51.199Z,42.53
2019-05-02T04:55:21.340Z,40.20
2019-05-02T04:57:47.405Z,45.17
2019-05-02T05:00:18.305Z,41.20
2019-05-02T05:02:48.388Z,41.60
2019-05-02T05:05:25.336Z,42.77
2019-05-02T05:07:49.464Z,41.67
2019-05-02T05:10:18.943Z,41.80
2019-05-02T05:12:48.065Z,43.27
2019-05-02T05:15:33.703Z,42.83
2019-05-02T05:17:47.889Z,42.40
2019-05-02T05:20:18.410Z,42.00
2019-05-02T05:22:48.207Z,44.80
2019-05-02T05:25:22.752Z,39.63
2019-05-02T05:27:52.775Z,40.10
2019-05-02T05:30:22.498Z,42.40
2019-05-02T05:32:51.586Z,42.27
2019-05-02T05:35:20.326Z,41.17
2019-05-02T05:37:52.906Z,40.53
2019-05-02T05:40:25.790Z,39.73
2019-05-02T05:42:50.718Z,36.77
2019-05-02T05:45:19.732Z,40.93
2019-05-02T05:47:52.483Z,38.30
2019-05-02T05:50:19.465Z,40.30
2019-05-02T05:52:48.316Z,40.10
2019-05-02T05:55:20.374Z,40.83
2019-05-02T05:57:49.984Z,39.80
2019-05-02T06:00:22.934Z,43.87
2019-05-02T06:02:56.078Z,44.13
2019-05-02T06:05:21.290Z,42.67
2019-05-02T06:07:50.084Z,38.67
2019-05-02T06:10:18.920Z,33.73
2019-05-02T06:12:48.041Z,42.03
2019-05-02T06:15:16.944Z,43.73
2019-05-02T06:17:45.983Z,39.77
2019-05-02T06:20:14.989Z,39.00
2019-05-02T06:22:43.810Z,46.27
2019-05-02T06:25:13.404Z,42.13
2019-05-02T06:27:42.130Z,43.67
2019-05-02T06:30:11.786Z,44.70
2019-05-02T06:32:40.612Z,48.97
2019-05-02T06:35:10.170Z,40.57
2019-05-02T06:37:40.766Z,36.23
2019-05-02T06:40:09.983Z,47.73
2019-05-02T06:42:38.877Z,47.33
2019-05-02T06:45:09.241Z,49.50
2019-05-02T06:47:41.573Z,49.50
2019-05-02T06:50:09.423Z,53.63
2019-05-02T06:52:38.833Z,38.70
2019-05-02T06:55:08.502Z,49.73
2019-05-02T06:57:37.258Z,50.30
2019-05-02T07:00:07.526Z,49.93
2019-05-02T07:02:36.400Z,47.30
2019-05-02T07:05:06.139Z,50.00
2019-05-02T07:07:37.084Z,52.63
2019-05-02T07:10:07.510Z,48.93
2019-05-02T07:12:36.533Z,41.97
2019-05-02T07:15:08.520Z,46.97
2019-05-02T07:17:41.903Z,48.47
2019-05-02T07:20:11.525Z,46.03
2019-05-02T07:22:40.840Z,49.70
2019-05-02T07:25:10.788Z,51.57
2019-05-02T07:27:39.551Z,48.87
2019-05-02T07:30:10.806Z,51.10
2019-05-02T07:32:39.563Z,51.77
2019-05-02T07:35:08.523Z,49.50
2019-05-02T07:37:37.230Z,48.50
2019-05-02T07:40:12.113Z,48.57
2019-05-02T07:42:41.735Z,56.27
2019-05-02T07:45:10.693Z,56.40
2019-05-02T07:47:40.341Z,58.77
2019-05-02T07:50:11.813Z,54.93
2019-05-02T07:52:41.340Z,55.20
2019-05-02T07:55:11.182Z,55.67
2019-05-02T07:57:39.920Z,54.80
2019-05-02T08:00:10.056Z,53.63
2019-05-02T08:02:38.855Z,54.13
2019-05-02T08:05:08.943Z,51.90
2019-05-02T08:07:38.058Z,54.40
2019-05-02T08:10:07.216Z,52.57
2019-05-02T08:12:36.025Z,54.73
2019-05-02T08:15:07.475Z,54.93
2019-05-02T08:17:36.301Z,52.70
2019-05-02T08:20:08.545Z,55.40
2019-05-02T08:22:36.599Z,56.00
2019-05-02T08:25:10.589Z,53.33
2019-05-02T08:27:54.439Z,56.30
2019-05-02T08:30:35.273Z,51.27
2019-05-02T08:33:04.168Z,54.80
2019-05-02T08:35:33.308Z,51.70
2019-05-02T08:38:02.072Z,50.83
2019-05-02T08:40:30.849Z,47.90
2019-05-02T08:43:03.555Z,46.03
2019-05-02T08:45:32.919Z,51.07
2019-05-02T08:48:05.120Z,49.37
2019-05-02T08:50:31.944Z,47.47
2019-05-02T08:53:01.974Z,48.83
2019-05-02T08:55:30.767Z,49.70
2019-05-02T08:57:59.561Z,52.53
2019-05-02T09:00:32.232Z,50.53
2019-05-02T09:03:02.762Z,50.07
2019-05-02T09:05:29.590Z,51.17
2019-05-02T09:07:58.345Z,51.40
2019-05-02T09:10:27.087Z,50.77
2019-05-02T09:12:55.875Z,52.87
2019-05-02T09:15:24.703Z,51.83
2019-05-02T09:17:56.392Z,48.70
2019-05-02T09:20:24.355Z,47.87
2019-05-02T09:22:55.902Z,49.33
2019-05-02T09:25:23.848Z,46.23
2019-05-02T09:27:52.790Z,49.00
2019-05-02T09:30:25.548Z,47.10
2019-05-02T09:32:52.484Z,47.53
2019-05-02T09:35:23.129Z,47.87
2019-05-02T09:37:52.323Z,47.43
2019-05-02T09:40:22.235Z,46.03
2019-05-02T09:42:56.492Z,47.13
2019-05-02T09:45:35.459Z,46.43
2019-05-02T09:48:05.246Z,49.93
2019-05-02T09:50:31.371Z,45.77
2019-05-02T09:53:01.733Z,45.77
2019-05-02T09:55:31.801Z,44.60
2019-05-02T09:58:02.721Z,43.77
2019-05-02T10:00:46.290Z,45.13
2019-05-02T10:03:16.719Z,43.17
2019-05-02T10:05:45.704Z,45.60
2019-05-02T10:08:14.961Z,45.60
2019-05-02T10:10:45.956Z,43.07
2019-05-02T10:13:14.842Z,43.30
2019-05-02T10:15:43.656Z,43.93
2019-05-02T10:18:14.643Z,51.13
2019-05-02T10:20:43.695Z,54.17
2019-05-02T10:23:19.619Z,45.20
2019-05-02T10:25:46.723Z,49.17
2019-05-02T10:28:15.571Z,48.03
2019-05-02T10:30:47.510Z,45.50
2019-05-02T10:33:15.647Z,45.50
2019-05-02T10:35:46.032Z,44.47
2019-05-02T10:38:19.259Z,44.80
2019-05-02T10:40:48.313Z,45.50
2019-05-02T10:43:15.844Z,44.73
2019-05-02T10:45:47.437Z,45.87
2019-05-02T10:48:25.769Z,46.83
2019-05-02T10:50:52.490Z,42.40
2019-05-02T10:53:21.898Z,42.13
2019-05-02T10:55:52.355Z,43.87
2019-05-02T10:58:26.152Z,43.53
2019-05-02T11:00:52.325Z,44.43
2019-05-02T11:03:38.108Z,45.33
2019-05-02T11:06:07.949Z,44.70
2019-05-02T11:08:42.240Z,44.10
2019-05-02T11:11:08.089Z,41.33
2019-05-02T11:14:05.900Z,44.80
2019-05-02T11:16:45.385Z,45.70
2019-05-02T11:19:18.825Z,44.07
2019-05-02T11:21:56.291Z,45.30
2019-05-02T11:24:18.181Z,44.23
2019-05-02T11:26:47.209Z,42.70
2019-05-02T11:29:15.922Z,44.93
2019-05-02T11:31:44.973Z,42.00
2019-05-02T11:34:14.068Z,44.00
2019-05-02T11:36:42.847Z,42.13
2019-05-02T11:39:20.153Z,41.40
2019-05-02T11:41:42.353Z,44.33
2019-05-02T11:44:12.223Z,42.03
2019-05-02T11:46:42.903Z,42.20
2019-05-02T11:49:12.251Z,40.00
2019-05-02T11:51:42.133Z,41.10
2019-05-02T11:54:12.893Z,41.20
2019-05-02T11:56:48.757Z,40.50
2019-05-02T11:59:14.789Z,38.60
2019-05-02T12:01:57.649Z,39.13
2019-05-02T12:04:17.175Z,38.80
2019-05-02T12:06:49.952Z,42.83
2019-05-02T12:09:16.619Z,38.87
2019-05-02T12:11:47.429Z,43.67
2019-05-02T12:14:16.082Z,40.00
2019-05-02T12:16:45.175Z,38.90
2019-05-02T12:19:14.914Z,38.90
2019-05-02T12:21:53.219Z,38.57
2019-05-02T12:24:22.206Z,38.73
2019-05-02T12:26:52.861Z,41.07
2019-05-02T12:29:21.901Z,36.50
2019-05-02T12:31:52.679Z,37.87
2019-05-02T12:34:21.876Z,36.97
2019-05-02T12:36:52.314Z,36.80
2019-05-02T12:39:22.270Z,37.20
2019-05-02T12:41:53.246Z,36.80
2019-05-02T12:44:22.295Z,35.23
2019-05-02T12:46:51.763Z,36.80
2019-05-02T12:49:27.039Z,34.70
2019-05-02T12:51:52.580Z,33.70
2019-05-02T12:54:22.009Z,36.20
2019-05-02T12:56:52.830Z,36.30
2019-05-02T12:59:22.523Z,37.40
2019-05-02T13:01:51.930Z,37.00
2019-05-02T13:04:22.817Z,35.67
2019-05-02T13:06:53.103Z,37.20
2019-05-02T13:09:23.346Z,37.43
2019-05-02T13:11:58.775Z,42.57
2019-05-02T13:14:31.862Z,43.53
2019-05-02T13:17:03.893Z,39.70
2019-05-02T13:19:39.956Z,38.63
2019-05-02T13:22:12.483Z,36.83
2019-05-02T13:24:47.056Z,38.17
2019-05-02T13:27:16.419Z,37.13
2019-05-02T13:29:45.501Z,36.73
2019-05-02T13:32:56.126Z,36.13
2019-05-02T13:35:51.903Z,36.67
2019-05-02T13:38:22.602Z,38.67
2019-05-02T13:40:51.837Z,40.00
2019-05-02T13:43:23.008Z,37.00
2019-05-02T13:46:02.223Z,36.20
2019-05-02T13:48:32.253Z,35.97
2019-05-02T13:51:01.220Z,37.47
2019-05-02T13:53:32.010Z,36.90
2019-05-02T13:56:18.661Z,35.50
2019-05-02T13:58:47.484Z,34.60
2019-05-02T14:01:17.514Z,35.37
2019-05-02T14:03:46.579Z,36.70
2019-05-02T14:06:15.426Z,35.83
2019-05-02T14:08:55.601Z,36.47
2019-05-02T14:11:43.505Z,38.67
2019-05-02T14:14:12.464Z,37.37
2019-05-02T14:16:42.007Z,37.90
2019-05-02T14:19:12.608Z,37.20
2019-05-02T14:21:42.194Z,37.80
2019-05-02T14:24:11.789Z,37.17
2019-05-02T14:26:43.271Z,37.43
2019-05-02T14:29:16.135Z,37.00
2019-05-02T14:31:42.669Z,38.33
2019-05-02T14:34:48.736Z,36.67
2019-05-02T14:37:17.852Z,34.57
2019-05-02T14:39:48.638Z,34.87
2019-05-02T14:42:24.466Z,37.73
2019-05-02T14:45:05.299Z,35.90
2019-05-02T14:47:19.760Z,36.13
2019-05-02T14:49:48.713Z,37.17
2019-05-02T14:52:17.461Z,36.10
2019-05-02T14:54:48.008Z,33.53
2019-05-02T14:57:22.946Z,32.73
2019-05-02T14:59:50.422Z,32.50
2019-05-02T15:02:39.352Z,29.90
2019-05-02T15:05:07.742Z,28.60
2019-05-02T15:07:38.472Z,29.20
2019-05-02T15:10:07.530Z,29.43
2019-05-02T15:12:36.342Z,29.30
2019-05-02T15:15:06.020Z,29.47
2019-05-02T15:17:37.817Z,32.47
2019-05-02T15:20:06.618Z,31.37
2019-05-02T15:22:37.447Z,38.27
2019-05-02T15:25:12.170Z,35.77
2019-05-02T15:27:41.831Z,34.97
2019-05-02T15:30:09.657Z,35.23
2019-05-02T15:32:56.025Z,36.60
2019-05-02T15:35:29.174Z,36.53
2019-05-02T15:38:02.549Z,37.63
2019-05-02T15:43:02.826Z,36.77
2019-05-02T15:45:27.710Z,37.43
2019-05-02T15:47:56.864Z,37.90
2019-05-02T15:50:25.947Z,38.93
2019-05-02T15:53:09.939Z,35.53
2019-05-02T15:55:39.352Z,38.17
2019-05-02T15:58:17.104Z,40.30
2019-05-02T16:00:48.652Z,38.50
2019-05-02T16:03:19.836Z,44.07
2019-05-02T16:05:47.891Z,57.80
2019-05-02T16:08:16.631Z,37.90
2019-05-02T16:10:45.419Z,38.30
2019-05-02T16:13:17.117Z,36.40
2019-05-02T16:15:44.891Z,36.00
2019-05-02T16:18:13.576Z,35.10
2019-05-02T16:21:07.636Z,36.37
2019-05-02T16:23:35.865Z,35.10
2019-05-02T16:26:06.457Z,34.20
2019-05-02T16:28:36.942Z,34.93
2019-05-02T16:31:09.268Z,35.50
2019-05-02T16:33:38.034Z,37.20
2019-05-02T16:36:06.859Z,36.90
2019-05-02T16:38:35.636Z,35.83
2019-05-02T16:41:09.906Z,37.87
2019-05-02T16:43:36.915Z,34.53
2019-05-02T16:46:06.628Z,35.17
2019-05-02T16:48:37.718Z,35.33
2019-05-02T16:51:27.666Z,35.50
2019-05-02T16:53:37.823Z,35.60
2019-05-02T16:56:07.196Z,33.57
2019-05-02T16:58:38.026Z,35.17
2019-05-02T17:01:07.401Z,35.00
2019-05-02T17:03:37.385Z,34.57
2019-05-02T17:06:06.552Z,35.43
2019-05-02T17:08:58.645Z,34.83
2019-05-02T17:11:34.505Z,35.37
2019-05-02T17:14:02.282Z,33.80
2019-05-02T17:16:31.625Z,33.37
2019-05-02T17:19:01.670Z,36.40
2019-05-02T17:21:35.060Z,35.43
2019-05-02T17:24:02.586Z,35.57
2019-05-02T17:26:31.826Z,35.27
2019-05-02T17:29:02.540Z,35.63
2019-05-02T17:31:32.209Z,35.13
2019-05-02T17:34:02.780Z,35.73
2019-05-02T17:36:32.517Z,36.30
2019-05-02T17:39:06.342Z,33.63
2019-05-02T17:41:32.135Z,35.50
2019-05-02T17:44:03.066Z,36.27
2019-05-02T17:46:31.759Z,34.83
2019-05-02T17:49:02.422Z,40.77
2019-05-02T17:51:37.897Z,43.37
2019-05-02T17:54:08.524Z,38.30
2019-05-02T17:56:37.395Z,36.30
2019-05-02T17:59:06.575Z,34.53
2019-05-02T18:01:38.735Z,35.20
2019-05-02T18:04:12.741Z,37.03
2019-05-02T18:06:38.103Z,38.57
2019-05-02T18:09:08.543Z,39.40
2019-05-02T18:11:37.880Z,35.63
2019-05-02T18:14:16.184Z,34.20
2019-05-02T18:16:39.252Z,34.80
2019-05-02T18:19:08.611Z,37.37
2019-05-02T18:21:37.428Z,36.03
2019-05-02T18:24:06.289Z,35.40
2019-05-02T18:26:35.129Z,34.57
2019-05-02T18:29:06.752Z,35.00
2019-05-02T18:31:34.901Z,33.53
2019-05-02T18:34:05.287Z,32.70
2019-05-02T18:36:34.136Z,37.27
2019-05-02T18:39:05.189Z,34.97
2019-05-02T18:41:37.369Z,33.30
2019-05-02T18:44:04.281Z,33.87
2019-05-02T18:46:36.694Z,34.20
2019-05-02T18:49:04.334Z,35.17
2019-05-02T18:51:33.292Z,35.00
2019-05-02T18:54:04.552Z,33.97
2019-05-02T18:56:35.583Z,35.37
2019-05-02T18:59:03.318Z,35.93
2019-05-02T19:01:32.384Z,36.50
2019-05-02T19:04:02.077Z,35.10
2019-05-02T19:06:33.301Z,34.87
2019-05-02T19:09:06.386Z,36.20
2019-05-02T19:11:35.398Z,35.73
2019-05-02T19:14:05.160Z,34.70
2019-05-02T19:16:34.122Z,36.37
2019-05-02T19:19:03.049Z,35.70
2019-05-02T19:21:36.043Z,35.60
2019-05-02T19:24:02.678Z,37.57
2019-05-02T19:26:32.623Z,35.50
2019-05-02T19:29:17.310Z,35.83
2019-05-02T19:31:48.376Z,33.73
2019-05-02T19:34:24.722Z,33.10
2019-05-02T19:36:47.748Z,34.63
2019-05-02T19:39:16.692Z,36.10
2019-05-02T19:41:45.672Z,35.30
2019-05-02T19:44:15.396Z,35.80
2019-05-02T19:46:44.415Z,35.03
2019-05-02T19:49:16.130Z,36.17
2019-05-02T19:51:44.671Z,34.63
2019-05-02T19:54:13.558Z,35.90
2019-05-02T19:56:46.933Z,36.47
2019-05-02T19:59:16.679Z,34.20
2019-05-02T20:01:43.879Z,34.30
2019-05-02T20:04:12.727Z,34.03
2019-05-02T20:06:41.894Z,33.60
2019-05-02T20:09:11.237Z,32.67
2019-05-02T20:11:40.063Z,32.93
2019-05-02T20:14:09.654Z,33.97
2019-05-02T20:16:48.415Z,31.60
2019-05-02T20:19:22.072Z,32.33
2019-05-02T20:22:02.861Z,31.53
2019-05-02T20:24:49.206Z,30.50
2019-05-02T20:27:17.643Z,31.73
2019-05-02T20:29:46.450Z,31.70
2019-05-02T20:32:15.221Z,34.60
2019-05-02T20:34:44.357Z,32.67
2019-05-02T20:37:13.099Z,32.33
2019-05-02T20:39:42.090Z,32.57
2019-05-02T20:42:12.142Z,34.03
2019-05-02T20:44:41.893Z,31.23
2019-05-02T20:47:14.875Z,30.83
2019-05-02T20:49:43.812Z,30.67
2019-05-02T20:52:12.672Z,30.90
2019-05-02T20:54:42.790Z,32.30
2019-05-02T20:57:12.084Z,29.83
2019-05-02T20:59:41.732Z,30.20
2019-05-02T21:02:12.229Z,29.53
2019-05-02T21:04:42.530Z,30.57
2019-05-02T21:07:32.863Z,29.50
2019-05-02T21:10:09.478Z,28.63
2019-05-02T21:12:38.205Z,28.97
2019-05-02T21:15:07.173Z,30.97
2019-05-02T21:17:35.931Z,27.50
2019-05-02T21:20:05.420Z,29.53
2019-05-02T21:22:35.326Z,28.23
2019-05-02T21:25:04.678Z,29.13
2019-05-02T21:27:33.505Z,30.20
2019-05-02T21:30:02.957Z,30.17
2019-05-02T21:32:32.157Z,29.70
2019-05-02T21:35:02.821Z,31.70
2019-05-02T21:37:32.112Z,29.40
2019-05-02T21:40:02.691Z,31.17
2019-05-02T21:42:31.835Z,29.57
2019-05-02T21:45:02.428Z,29.97
2019-05-02T21:47:31.871Z,31.23
2019-05-02T21:50:22.768Z,29.90
2019-05-02T21:53:19.780Z,30.30
2019-05-02T21:56:02.867Z,30.40
2019-05-02T21:58:32.345Z,29.73
2019-05-02T22:01:12.768Z,30.30
2019-05-02T22:03:41.607Z,28.73
2019-05-02T22:06:12.256Z,29.30
2019-05-02T22:08:41.765Z,29.13
2019-05-02T22:11:12.199Z,29.73
2019-05-02T22:13:42.287Z,29.77
2019-05-02T22:16:12.934Z,29.53
2019-05-02T22:18:42.767Z,30.13
2019-05-02T22:21:12.286Z,28.20
2019-05-02T22:23:42.513Z,28.40
2019-05-02T22:26:12.795Z,28.77
2019-05-02T22:28:41.707Z,28.97
2019-05-02T22:31:12.262Z,28.80
2019-05-02T22:33:42.123Z,28.70
2019-05-02T22:36:12.374Z,28.97
2019-05-02T22:38:55.539Z,29.80
2019-05-02T22:41:24.262Z,30.40
2019-05-02T22:43:53.375Z,29.27
2019-05-02T22:46:43.314Z,29.27
2019-05-02T22:49:14.666Z,29.50
2019-05-02T22:51:44.241Z,29.10
2019-05-02T22:54:24.067Z,28.30
2019-05-02T22:56:43.790Z,27.73
2019-05-02T22:59:12.811Z,28.73
2019-05-02T23:01:42.292Z,28.63
2019-05-02T23:04:12.833Z,29.63
2019-05-02T23:06:43.947Z,28.77
2019-05-02T23:09:12.863Z,28.93
2019-05-02T23:11:42.707Z,30.40
2019-05-02T23:14:11.707Z,30.90
2019-05-02T23:16:42.750Z,31.60
2019-05-02T23:19:12.313Z,30.27
2019-05-02T23:21:42.181Z,30.60
2019-05-02T23:24:17.439Z,34.47
2019-05-02T23:26:52.817Z,30.80
2019-05-02T23:29:22.564Z,30.97
2019-05-02T23:31:51.868Z,31.47
2019-05-02T23:34:23.339Z,32.97
2019-05-02T23:36:52.160Z,31.67
2019-05-02T23:39:21.745Z,30.60
2019-05-02T23:41:52.371Z,32.17
2019-05-02T23:44:22.709Z,30.53
2019-05-02T23:46:52.466Z,30.30
2019-05-02T23:49:22.060Z,30.40
2019-05-02T23:51:50.923Z,31.27
2019-05-02T23:54:19.674Z,32.33
2019-05-02T23:56:48.511Z,32.23
2019-05-02T23:59:17.522Z,32.60
